createdAt,value
2019-03-02T00:01:35.391Z,21.23
2019-03-02T00:04:09.682Z,21.03
2019-03-02T00:06:37.023Z,19.60
2019-03-02T00:09:07.974Z,22.90
2019-03-02T00:11:38.016Z,16.80
2019-03-02T00:14:08.018Z,18.20
2019-03-02T00:16:39.753Z,14.47
2019-03-02T00:19:09.746Z,16.47
2019-03-02T00:21:39.755Z,19.07
2019-03-02T00:24:09.842Z,14.63
2019-03-02T00:26:42.851Z,18.87
2019-03-02T00:29:11.970Z,18.60
2019-03-02T00:31:42.148Z,21.33
2019-03-02T00:34:12.367Z,12.63
2019-03-02T00:36:42.321Z,14.17
2019-03-02T00:39:15.611Z,15.87
2019-03-02T00:41:43.955Z,17.10
2019-03-02T00:44:13.999Z,23.13
2019-03-02T00:46:44.053Z,18.40
2019-03-02T00:49:14.061Z,16.17
2019-03-02T00:51:46.314Z,17.23
2019-03-02T00:54:15.666Z,18.83
2019-03-02T00:56:45.676Z,17.30
2019-03-02T00:59:15.640Z,15.90
2019-03-02T01:01:45.669Z,22.33
2019-03-02T01:04:15.616Z,19.60
2019-03-02T01:06:48.775Z,16.90
2019-03-02T01:09:17.232Z,16.50
2019-03-02T01:11:47.178Z,12.33
2019-03-02T01:14:17.205Z,23.50
2019-03-02T01:16:47.240Z,17.57
2019-03-02T01:19:17.637Z,15.17
2019-03-02T01:21:48.605Z,15.43
2019-03-02T01:24:18.549Z,14.80
2019-03-02T01:26:48.586Z,25.67
2019-03-02T01:29:20.407Z,15.37
2019-03-02T01:31:50.541Z,16.07
2019-03-02T01:34:20.502Z,17.20
2019-03-02T01:36:50.438Z,15.97
2019-03-02T01:39:20.456Z,20.93
2019-03-02T01:41:50.960Z,22.87
2019-03-02T01:44:22.046Z,21.13
2019-03-02T01:46:51.998Z,15.10
2019-03-02T01:49:21.963Z,14.30
2019-03-02T01:51:54.719Z,16.07
2019-03-02T01:54:23.576Z,19.33
2019-03-02T01:56:53.597Z,18.53
2019-03-02T01:59:23.619Z,15.73
2019-03-02T02:01:56.518Z,16.73
2019-03-02T02:04:25.384Z,17.30
2019-03-02T02:06:55.289Z,19.37
2019-03-02T02:09:25.249Z,20.33
2019-03-02T02:11:55.202Z,26.97
2019-03-02T02:14:25.211Z,18.70
2019-03-02T02:16:55.243Z,16.07
2019-03-02T02:19:25.279Z,16.07
2019-03-02T02:21:55.210Z,18.27
2019-03-02T02:24:25.755Z,18.13
2019-03-02T02:26:55.810Z,14.20
2019-03-02T02:29:25.779Z,18.77
2019-03-02T02:31:55.721Z,15.20
2019-03-02T02:34:25.735Z,16.70
2019-03-02T02:36:58.082Z,19.43
2019-03-02T02:39:29.083Z,20.10
2019-03-02T02:42:00.164Z,19.97
2019-03-02T02:44:33.042Z,17.73
2019-03-02T02:47:02.304Z,17.03
2019-03-02T02:49:32.292Z,17.33
2019-03-02T02:52:02.231Z,15.30
2019-03-02T02:54:32.349Z,19.10
2019-03-02T02:57:02.327Z,21.13
2019-03-02T02:59:34.084Z,15.60
2019-03-02T03:02:06.432Z,16.07
2019-03-02T03:04:38.185Z,20.30
2019-03-02T03:07:12.499Z,18.90
2019-03-02T03:10:07.897Z,19.43
2019-03-02T03:12:37.920Z,14.83
2019-03-02T03:15:07.976Z,16.20
2019-03-02T03:17:38.001Z,16.30
2019-03-02T03:20:10.356Z,27.97
2019-03-02T03:22:40.933Z,16.23
2019-03-02T03:25:14.026Z,16.87
2019-03-02T03:27:47.630Z,16.73
2019-03-02T03:30:14.594Z,23.63
2019-03-02T03:32:54.698Z,16.67
2019-03-02T03:35:17.820Z,16.07
2019-03-02T03:37:51.257Z,19.70
2019-03-02T03:40:20.069Z,18.57
2019-03-02T03:42:50.925Z,15.63
2019-03-02T03:45:21.041Z,21.03
2019-03-02T03:47:51.258Z,15.90
2019-03-02T03:50:21.214Z,16.87
2019-03-02T03:52:51.151Z,16.70
2019-03-02T03:55:25.096Z,17.73
2019-03-02T03:57:55.610Z,19.50
2019-03-02T04:00:24.385Z,24.17
2019-03-02T04:02:54.316Z,20.20
2019-03-02T04:05:24.339Z,22.50
2019-03-02T04:07:54.291Z,18.80
2019-03-02T04:10:27.461Z,23.33
2019-03-02T04:13:04.145Z,22.67
2019-03-02T04:15:27.615Z,22.47
2019-03-02T04:17:57.614Z,22.40
2019-03-02T04:20:33.967Z,24.73
2019-03-02T04:23:06.817Z,20.20
2019-03-02T04:25:36.928Z,15.33
2019-03-02T04:28:06.870Z,21.70
2019-03-02T04:30:36.906Z,25.13
2019-03-02T04:33:07.616Z,19.60
2019-03-02T04:35:37.701Z,24.03
2019-03-02T04:38:07.730Z,21.27
2019-03-02T04:40:37.753Z,23.13
2019-03-02T04:43:07.706Z,24.40
2019-03-02T04:45:39.767Z,24.50
2019-03-02T04:48:09.383Z,25.93
2019-03-02T04:50:39.425Z,26.93
2019-03-02T04:53:09.356Z,43.60
2019-03-02T04:55:39.378Z,23.10
2019-03-02T04:58:11.981Z,20.67
2019-03-02T05:00:41.034Z,24.20
2019-03-02T05:03:11.088Z,21.57
2019-03-02T05:05:43.441Z,26.30
2019-03-02T05:08:12.597Z,21.00
2019-03-02T05:10:42.694Z,22.70
2019-03-02T05:13:12.653Z,21.20
2019-03-02T05:15:42.656Z,26.40
2019-03-02T05:18:14.765Z,21.77
2019-03-02T05:20:44.652Z,23.33
2019-03-02T05:23:14.766Z,20.67
2019-03-02T05:25:44.883Z,21.13
2019-03-02T05:28:14.828Z,20.97
2019-03-02T05:30:44.765Z,24.20
2019-03-02T05:33:14.893Z,22.27
2019-03-02T05:35:47.771Z,25.67
2019-03-02T05:38:16.511Z,24.90
2019-03-02T05:40:46.450Z,24.47
2019-03-02T05:43:16.502Z,21.57
2019-03-02T05:45:46.967Z,26.10
2019-03-02T05:48:16.972Z,24.20
2019-03-02T05:50:46.901Z,21.37
2019-03-02T05:53:17.150Z,18.87
2019-03-02T05:55:49.976Z,27.03
2019-03-02T05:58:18.741Z,21.80
2019-03-02T06:00:48.707Z,23.50
2019-03-02T06:03:18.860Z,19.67
2019-03-02T06:05:48.813Z,20.43
2019-03-02T06:08:18.828Z,17.77
2019-03-02T06:10:48.769Z,20.73
2019-03-02T06:13:18.966Z,20.67
2019-03-02T06:15:49.126Z,18.87
2019-03-02T06:18:19.658Z,21.73
2019-03-02T06:20:49.605Z,19.30
2019-03-02T06:23:19.639Z,24.80
2019-03-02T06:25:49.664Z,21.40
2019-03-02T06:28:22.947Z,22.37
2019-03-02T06:30:51.385Z,22.20
2019-03-02T06:33:31.292Z,31.80
2019-03-02T06:36:04.863Z,26.83
2019-03-02T06:38:33.091Z,24.10
2019-03-02T06:41:03.126Z,21.77
2019-03-02T06:43:33.077Z,28.27
2019-03-02T06:46:04.204Z,26.30
2019-03-02T06:48:34.391Z,30.07
2019-03-02T06:51:04.319Z,21.07
2019-03-02T06:53:37.063Z,24.67
2019-03-02T06:56:05.926Z,22.60
2019-03-02T06:58:35.983Z,22.77
2019-03-02T07:01:05.932Z,26.17
2019-03-02T07:03:36.013Z,25.47
2019-03-02T07:06:08.572Z,23.07
2019-03-02T07:08:38.167Z,23.00
2019-03-02T07:11:08.083Z,22.97
2019-03-02T07:13:38.291Z,23.87
2019-03-02T07:16:08.204Z,26.00
2019-03-02T07:19:09.510Z,23.43
2019-03-02T07:21:41.493Z,23.10
2019-03-02T07:24:11.109Z,22.63
2019-03-02T07:26:41.030Z,23.37
2019-03-02T07:29:13.821Z,23.57
2019-03-02T07:31:42.601Z,35.13
2019-03-02T07:34:12.659Z,31.27
2019-03-02T07:36:42.699Z,34.43
2019-03-02T07:39:12.670Z,22.63
2019-03-02T07:41:42.591Z,27.00
2019-03-02T07:44:12.631Z,24.10
2019-03-02T07:46:44.104Z,23.00
2019-03-02T07:49:14.375Z,23.87
2019-03-02T07:51:44.324Z,23.77
2019-03-02T07:54:14.289Z,24.50
2019-03-02T07:56:44.199Z,19.90
2019-03-02T07:59:14.146Z,24.07
2019-03-02T08:01:44.071Z,24.83
2019-03-02T08:04:14.086Z,24.47
2019-03-02T08:06:44.022Z,23.73
2019-03-02T08:09:13.976Z,20.50
2019-03-02T08:11:45.489Z,23.53
2019-03-02T08:14:16.206Z,19.07
2019-03-02T08:16:46.301Z,23.07
2019-03-02T08:19:16.250Z,21.83
2019-03-02T08:21:46.325Z,23.90
2019-03-02T08:24:16.273Z,20.83
2019-03-02T08:26:46.195Z,21.83
2019-03-02T08:29:17.766Z,24.90
2019-03-02T08:31:47.790Z,24.70
2019-03-02T08:34:17.760Z,21.43
2019-03-02T08:36:50.305Z,21.47
2019-03-02T08:39:19.253Z,20.17
2019-03-02T08:41:49.266Z,23.97
2019-03-02T08:44:19.890Z,24.90
2019-03-02T08:46:49.943Z,24.30
2019-03-02T08:49:19.966Z,33.13
2019-03-02T08:51:49.964Z,26.57
2019-03-02T08:54:21.546Z,23.00
2019-03-02T08:56:51.444Z,22.83
2019-03-02T08:59:21.398Z,25.63
2019-03-02T09:01:54.839Z,23.07
2019-03-02T09:04:23.074Z,24.87
2019-03-02T09:06:52.984Z,20.10
2019-03-02T09:09:22.942Z,23.93
2019-03-02T09:11:52.870Z,23.27
2019-03-02T09:14:22.822Z,22.30
2019-03-02T09:16:52.848Z,19.30
2019-03-02T09:19:24.137Z,23.17
2019-03-02T09:21:55.609Z,25.33
2019-03-02T09:24:25.739Z,19.67
2019-03-02T09:26:55.809Z,29.33
2019-03-02T09:29:25.839Z,24.63
2019-03-02T09:31:55.840Z,22.33
2019-03-02T09:34:27.444Z,29.37
2019-03-02T09:36:57.458Z,24.40
2019-03-02T09:39:27.562Z,24.20
2019-03-02T09:41:58.084Z,29.63
2019-03-02T09:44:32.691Z,23.20
2019-03-02T09:47:00.816Z,22.50
2019-03-02T09:49:30.466Z,27.53
2019-03-02T09:52:01.183Z,23.13
2019-03-02T09:54:31.180Z,24.40
2019-03-02T09:57:01.105Z,23.87
2019-03-02T09:59:31.049Z,29.43
2019-03-02T10:02:01.001Z,28.87
2019-03-02T10:04:30.953Z,26.53
2019-03-02T10:07:01.935Z,22.50
2019-03-02T10:09:32.253Z,22.90
2019-03-02T10:12:02.287Z,28.40
2019-03-02T10:14:32.235Z,31.40
2019-03-02T10:17:02.700Z,30.83
2019-03-02T10:19:32.701Z,26.73
2019-03-02T10:22:02.790Z,29.03
2019-03-02T10:24:32.734Z,23.30
2019-03-02T10:27:02.667Z,27.40
2019-03-02T10:29:32.657Z,31.27
2019-03-02T10:32:04.425Z,27.20
2019-03-02T10:34:34.576Z,23.70
2019-03-02T10:37:07.243Z,25.07
2019-03-02T10:39:36.263Z,25.77
2019-03-02T10:42:06.211Z,24.43
2019-03-02T10:44:36.145Z,22.53
2019-03-02T10:47:06.233Z,27.73
2019-03-02T10:49:36.224Z,24.20
2019-03-02T10:52:06.177Z,26.37
2019-03-02T10:54:36.187Z,27.33
2019-03-02T10:57:06.218Z,24.83
2019-03-02T10:59:36.154Z,26.33
2019-03-02T11:02:06.469Z,30.40
2019-03-02T11:04:47.074Z,31.50
2019-03-02T11:07:34.946Z,36.70
2019-03-02T11:10:26.240Z,24.80
2019-03-02T11:13:33.490Z,26.47
2019-03-02T11:16:31.598Z,28.63
2019-03-02T11:19:20.610Z,23.43
2019-03-02T11:21:59.353Z,28.90
2019-03-02T11:25:06.406Z,28.83
2019-03-02T11:28:13.388Z,35.53
2019-03-02T11:30:55.802Z,29.47
2019-03-02T11:33:50.665Z,34.97
2019-03-02T11:36:55.014Z,40.07
2019-03-02T11:39:49.998Z,32.73
2019-03-02T11:42:27.722Z,33.37
2019-03-02T11:45:20.359Z,35.50
2019-03-02T11:48:24.429Z,31.47
2019-03-02T11:51:16.465Z,35.77
2019-03-02T11:54:04.218Z,38.63
2019-03-02T11:57:02.370Z,37.60
2019-03-02T11:59:42.021Z,34.53
2019-03-02T12:02:38.359Z,36.60
2019-03-02T12:05:31.353Z,37.20
2019-03-02T12:08:26.638Z,49.27
2019-03-02T12:11:07.073Z,44.07
2019-03-02T12:13:56.523Z,37.70
2019-03-02T12:16:35.110Z,42.13
2019-03-02T12:19:26.143Z,51.03
2019-03-02T12:22:12.779Z,38.13
2019-03-02T12:25:01.763Z,38.67
2019-03-02T12:27:55.026Z,34.00
2019-03-02T12:30:53.781Z,37.33
2019-03-02T12:33:57.633Z,39.73
2019-03-02T12:36:43.254Z,38.20
2019-03-02T12:39:25.124Z,38.03
2019-03-02T12:42:26.693Z,36.53
2019-03-02T12:45:17.381Z,41.80
2019-03-02T12:47:56.642Z,41.13
2019-03-02T12:50:55.015Z,40.60
2019-03-02T12:53:48.624Z,43.17
2019-03-02T12:56:37.593Z,47.50
2019-03-02T12:59:25.412Z,41.03
2019-03-02T13:02:14.059Z,40.07
2019-03-02T13:05:06.094Z,42.37
2019-03-02T13:07:58.076Z,40.73
2019-03-02T13:10:34.049Z,41.47
2019-03-02T13:13:23.597Z,43.00
2019-03-02T13:16:30.631Z,41.00
2019-03-02T13:19:16.560Z,39.17
2019-03-02T13:22:01.813Z,45.43
2019-03-02T13:24:53.790Z,41.23
2019-03-02T13:27:34.190Z,39.30
2019-03-02T13:30:25.707Z,44.00
2019-03-02T13:33:15.819Z,40.80
2019-03-02T13:35:59.864Z,44.83
2019-03-02T13:38:33.570Z,34.67
2019-03-02T13:41:29.880Z,36.27
2019-03-02T13:44:06.016Z,36.37
2019-03-02T13:46:56.562Z,36.93
2019-03-02T13:50:00.865Z,38.57
2019-03-02T13:52:53.226Z,42.37
2019-03-02T13:55:45.956Z,41.00
2019-03-02T13:58:34.325Z,40.83
2019-03-02T14:01:16.494Z,38.00
2019-03-02T14:03:55.265Z,35.73
2019-03-02T14:06:59.373Z,36.33
2019-03-02T14:09:55.803Z,39.73
2019-03-02T14:12:38.881Z,38.90
2019-03-02T14:15:26.778Z,40.53
2019-03-02T14:18:07.814Z,38.70
2019-03-02T14:21:01.199Z,36.60
2019-03-02T14:23:56.416Z,39.33
2019-03-02T14:26:44.084Z,39.50
2019-03-02T14:29:19.977Z,41.17
2019-03-02T14:32:13.764Z,45.37
2019-03-02T14:35:11.649Z,40.17
2019-03-02T14:37:59.341Z,43.53
2019-03-02T14:40:38.194Z,39.33
2019-03-02T14:43:45.271Z,40.33
2019-03-02T14:46:24.809Z,36.20
2019-03-02T14:49:16.415Z,32.37
2019-03-02T14:52:14.386Z,38.53
2019-03-02T14:54:56.889Z,39.00
2019-03-02T14:57:37.478Z,38.20
2019-03-02T15:00:26.660Z,42.20
2019-03-02T15:03:14.989Z,40.23
2019-03-02T15:06:08.772Z,42.13
2019-03-02T15:08:55.562Z,38.37
2019-03-02T15:11:41.681Z,39.23
2019-03-02T15:14:48.840Z,38.87
2019-03-02T15:17:40.594Z,37.50
2019-03-02T15:20:19.736Z,35.27
2019-03-02T15:23:08.690Z,37.60
2019-03-02T15:25:57.686Z,30.47
2019-03-02T15:28:38.591Z,35.23
2019-03-02T15:31:30.477Z,34.77
2019-03-02T15:34:34.601Z,34.93
2019-03-02T15:37:13.498Z,33.37
2019-03-02T15:40:11.675Z,41.83
2019-03-02T15:42:59.696Z,33.30
2019-03-02T15:45:36.286Z,33.70
2019-03-02T15:48:18.769Z,30.97
2019-03-02T15:51:10.917Z,31.80
2019-03-02T15:54:14.770Z,32.27
2019-03-02T15:56:56.245Z,38.70
2019-03-02T15:59:39.225Z,27.90
2019-03-02T16:02:25.992Z,30.37
2019-03-02T16:05:03.842Z,29.10
2019-03-02T16:07:49.957Z,33.70
2019-03-02T16:10:54.252Z,34.20
2019-03-02T16:13:33.902Z,35.33
2019-03-02T16:16:28.914Z,32.10
2019-03-02T16:19:09.172Z,29.67
2019-03-02T16:22:10.308Z,30.93
2019-03-02T16:25:05.384Z,34.97
2019-03-02T16:28:05.522Z,28.13
2019-03-02T16:30:53.669Z,28.97
2019-03-02T16:33:51.849Z,30.30
2019-03-02T16:36:50.030Z,28.20
2019-03-02T16:39:51.042Z,33.00
2019-03-02T16:42:40.021Z,28.37
2019-03-02T16:45:20.602Z,30.40
2019-03-02T16:48:09.703Z,31.60
2019-03-02T16:50:50.044Z,26.70
2019-03-02T16:53:31.308Z,31.07
2019-03-02T16:56:25.456Z,27.10
2019-03-02T16:59:05.230Z,29.60
2019-03-02T17:01:57.738Z,31.40
2019-03-02T17:04:33.428Z,25.00
2019-03-02T17:07:15.166Z,28.40
2019-03-02T17:10:00.369Z,27.67
2019-03-02T17:12:41.328Z,33.37
2019-03-02T17:15:23.665Z,28.23
2019-03-02T17:18:11.350Z,24.10
2019-03-02T17:20:46.181Z,30.73
2019-03-02T17:23:42.374Z,25.87
2019-03-02T17:26:33.696Z,28.50
2019-03-02T17:29:22.676Z,31.70
2019-03-02T17:32:18.613Z,29.93
2019-03-02T17:35:07.740Z,30.13
2019-03-02T17:38:08.077Z,28.07
2019-03-02T17:40:51.391Z,33.73
2019-03-02T17:43:46.525Z,30.73
2019-03-02T17:46:37.579Z,31.30
2019-03-02T17:49:29.843Z,30.73
2019-03-02T17:52:15.230Z,26.80
2019-03-02T17:54:57.067Z,31.83
2019-03-02T17:57:44.816Z,29.97
2019-03-02T18:00:46.084Z,32.50
2019-03-02T18:03:26.341Z,32.57
2019-03-02T18:06:05.722Z,37.20
2019-03-02T18:08:52.644Z,34.40
2019-03-02T18:11:46.495Z,36.03
2019-03-02T18:14:35.373Z,29.10
2019-03-02T18:17:33.499Z,38.57
2019-03-02T18:20:03.764Z,35.33
2019-03-02T18:22:35.088Z,38.43
2019-03-02T18:25:07.899Z,37.17
2019-03-02T18:27:38.713Z,35.13
2019-03-02T18:30:12.181Z,40.73
2019-03-02T18:32:42.170Z,47.60
2019-03-02T18:35:12.207Z,41.40
2019-03-02T18:37:42.721Z,35.63
2019-03-02T18:40:13.093Z,46.10
2019-03-02T18:42:43.015Z,42.60
2019-03-02T18:45:13.957Z,35.07
2019-03-02T18:47:43.900Z,36.40
2019-03-02T18:50:32.817Z,43.13
2019-03-02T18:53:06.105Z,36.27
2019-03-02T18:55:36.083Z,37.57
2019-03-02T18:58:07.788Z,43.23
2019-03-02T19:00:57.656Z,41.60
2019-03-02T19:03:27.470Z,45.63
2019-03-02T19:05:57.419Z,47.40
2019-03-02T19:08:27.366Z,40.63
2019-03-02T19:10:57.408Z,40.00
2019-03-02T19:13:27.434Z,42.13
2019-03-02T19:15:57.405Z,41.47
2019-03-02T19:18:27.340Z,46.77
2019-03-02T19:20:58.272Z,43.00
2019-03-02T19:23:28.297Z,36.87
2019-03-02T19:25:58.318Z,51.73
2019-03-02T19:28:28.257Z,35.30
2019-03-02T19:30:58.321Z,44.63
2019-03-02T19:33:28.366Z,48.00
2019-03-02T19:35:58.466Z,42.53
2019-03-02T19:38:28.497Z,45.83
2019-03-02T19:40:58.472Z,47.83
2019-03-02T19:43:28.400Z,49.80
2019-03-02T19:45:58.364Z,48.20
2019-03-02T19:48:28.288Z,63.37
2019-03-02T19:50:58.331Z,44.60
2019-03-02T19:53:28.259Z,50.70
2019-03-02T19:55:58.283Z,53.20
2019-03-02T19:58:28.229Z,49.77
2019-03-02T20:00:58.245Z,57.77
2019-03-02T20:03:28.266Z,44.73
2019-03-02T20:05:58.203Z,55.27
2019-03-02T20:08:28.290Z,50.63
2019-03-02T20:10:58.295Z,46.90
2019-03-02T20:13:28.243Z,47.97
2019-03-02T20:15:58.192Z,46.97
2019-03-02T20:18:28.271Z,55.87
2019-03-02T20:20:58.396Z,55.00
2019-03-02T20:23:36.944Z,52.43
2019-03-02T20:25:59.866Z,52.20
2019-03-02T20:28:29.880Z,54.70
2019-03-02T20:30:59.829Z,50.30
2019-03-02T20:33:29.786Z,49.40
2019-03-02T20:35:59.757Z,56.20
2019-03-02T20:38:29.698Z,54.10
2019-03-02T20:40:59.630Z,52.83
2019-03-02T20:43:29.654Z,49.33
2019-03-02T20:45:59.674Z,49.53
2019-03-02T20:48:29.601Z,58.97
2019-03-02T20:50:59.552Z,55.10
2019-03-02T20:53:29.498Z,50.00
2019-03-02T20:55:59.487Z,48.03
2019-03-02T20:58:29.411Z,52.33
2019-03-02T21:00:59.449Z,53.83
2019-03-02T21:03:29.397Z,57.13
2019-03-02T21:05:59.375Z,45.17
2019-03-02T21:08:29.339Z,51.47
2019-03-02T21:10:59.361Z,54.57
2019-03-02T21:13:29.376Z,51.90
2019-03-02T21:15:59.518Z,51.23
2019-03-02T21:18:29.458Z,51.07
2019-03-02T21:20:59.423Z,46.53
2019-03-02T21:23:29.368Z,50.70
2019-03-02T21:25:59.306Z,52.60
2019-03-02T21:28:29.427Z,58.63
2019-03-02T21:30:59.506Z,55.23
2019-03-02T21:33:29.498Z,48.40
2019-03-02T21:35:59.443Z,49.57
2019-03-02T21:38:30.091Z,55.03
2019-03-02T21:41:00.024Z,55.33
2019-03-02T21:43:30.128Z,50.37
2019-03-02T21:46:00.061Z,52.67
2019-03-02T21:48:30.150Z,48.50
2019-03-02T21:51:00.576Z,50.40
2019-03-02T21:53:30.559Z,50.93
2019-03-02T21:56:00.464Z,60.07
2019-03-02T21:58:30.440Z,52.47
2019-03-02T22:01:00.460Z,66.47
2019-03-02T22:03:30.480Z,65.80
2019-03-02T22:06:00.440Z,83.73
2019-03-02T22:08:30.542Z,53.07
2019-03-02T22:11:06.204Z,61.57
2019-03-02T22:13:36.941Z,55.93
2019-03-02T22:16:07.064Z,61.63
2019-03-02T22:18:37.016Z,64.90
2019-03-02T22:21:06.951Z,59.80
2019-03-02T22:23:36.892Z,51.77
2019-03-02T22:26:06.929Z,57.40
2019-03-02T22:28:37.027Z,56.30
2019-03-02T22:31:07.033Z,70.70
2019-03-02T22:33:37.091Z,62.53
2019-03-02T22:36:07.099Z,62.73
2019-03-02T22:38:37.060Z,58.90
2019-03-02T22:41:07.123Z,67.13
2019-03-02T22:43:37.153Z,68.50
2019-03-02T22:46:07.125Z,61.60
2019-03-02T22:48:37.509Z,52.77
2019-03-02T22:51:07.581Z,54.23
2019-03-02T22:53:37.552Z,60.20
2019-03-02T22:56:07.723Z,58.57
2019-03-02T22:58:36.888Z,52.00
2019-03-02T23:01:42.987Z,44.13
2019-03-02T23:04:12.980Z,49.63
2019-03-02T23:06:43.040Z,52.20
2019-03-02T23:09:13.032Z,48.43
2019-03-02T23:11:42.960Z,50.20
2019-03-02T23:14:13.134Z,56.60
2019-03-02T23:16:43.046Z,41.80
2019-03-02T23:19:13.120Z,37.63
2019-03-02T23:21:43.203Z,37.60
2019-03-02T23:24:13.236Z,33.17
2019-03-02T23:26:43.333Z,32.30
2019-03-02T23:29:13.381Z,32.33
2019-03-02T23:31:44.973Z,29.23
2019-03-02T23:34:15.102Z,29.00
2019-03-02T23:36:45.057Z,25.90
2019-03-02T23:39:15.016Z,28.73
2019-03-02T23:41:45.017Z,27.13
2019-03-02T23:44:15.071Z,23.47
2019-03-02T23:46:45.079Z,29.40
2019-03-02T23:49:15.064Z,38.60
2019-03-02T23:51:44.987Z,28.27
2019-03-02T23:54:15.026Z,23.93
2019-03-02T23:56:45.050Z,18.90
2019-03-02T23:59:14.990Z,25.00
